Time;durP1;ratioP1;P1;durP2;ratioP2;P2;SDS_P1;SDS_P2;PMS_P1;PMS_P2;Temp;Humidity;BMP_temperature;BMP_pressure;BME280_temperature;BME280_humidity;BME280_pressure;Samples;Min_cycle;Max_cycle;Signal;HPM_P1;HPM_P2
2021/11/27 00:00:50;;;;;;;2.20;1.50;;;;;;;5.29;68.40;97149.53;5072177;28;20064;-62
2021/11/27 00:03:18;;;;;;;2.00;1.35;;;;;;;5.29;67.77;97172.44;5072426;28;20056;-62
2021/11/27 00:05:48;;;;;;;2.58;1.40;;;;;;;5.36;67.82;97140.66;5072074;28;20060;-62
2021/11/27 00:08:17;;;;;;;2.22;1.48;;;;;;;5.42;67.71;97147.47;5072134;28;20060;-62
2021/11/27 00:10:49;;;;;;;1.73;1.20;;;;;;;5.43;67.50;97146.31;5072098;28;20406;-62
2021/11/27 00:13:17;;;;;;;1.92;1.50;;;;;;;5.30;67.69;97162.19;5067732;28;20052;-62
2021/11/27 00:15:47;;;;;;;2.15;1.30;;;;;;;5.41;67.36;97151.38;5065326;28;20064;-62
2021/11/27 00:18:16;;;;;;;1.55;1.10;;;;;;;5.43;67.29;97149.06;5061770;28;20060;-62
2021/11/27 00:20:46;;;;;;;1.60;1.15;;;;;;;5.41;67.01;97140.34;5056149;28;20056;-62
2021/11/27 00:23:15;;;;;;;1.73;1.30;;;;;;;5.37;67.38;97136.72;5051822;28;20049;-63
2021/11/27 00:25:44;;;;;;;2.03;1.25;;;;;;;5.31;67.81;97140.91;5047580;28;20422;-63
2021/11/27 00:28:14;;;;;;;1.65;1.25;;;;;;;5.43;67.05;97140.78;5043487;28;20053;-63
2021/11/27 00:30:43;;;;;;;1.77;1.10;;;;;;;5.37;67.47;97133.94;5053675;28;20505;-63
2021/11/27 00:33:10;;;;;;;1.85;1.10;;;;;;;5.33;67.76;97122.81;5038804;28;20065;-62
2021/11/27 00:35:38;;;;;;;1.60;1.10;;;;;;;5.42;67.39;97134.47;5051682;28;20052;-62
2021/11/27 00:38:07;;;;;;;1.00;0.73;;;;;;;5.41;67.49;97123.78;5043036;28;20073;-62
2021/11/27 00:40:37;;;;;;;1.60;1.20;;;;;;;5.14;68.03;97134.63;5048190;28;20502;-62
2021/11/27 00:43:07;;;;;;;1.92;1.27;;;;;;;5.20;68.48;97126.91;5050623;28;20056;-62
2021/11/27 00:45:37;;;;;;;1.50;1.08;;;;;;;5.16;68.15;97131.53;5051177;28;20049;-62
2021/11/27 00:48:07;;;;;;;2.43;1.47;;;;;;;5.35;67.78;97131.53;5054765;28;20077;-62
2021/11/27 00:50:39;;;;;;;1.35;0.90;;;;;;;5.37;67.53;97133.94;5054988;28;20459;-62
2021/11/27 00:53:07;;;;;;;1.75;1.27;;;;;;;5.45;67.00;97130.19;5053308;28;20057;-62
2021/11/27 00:55:37;;;;;;;1.48;1.00;;;;;;;5.42;67.28;97130.91;5043868;28;20061;-62
2021/11/27 00:58:05;;;;;;;1.92;1.20;;;;;;;5.19;67.92;97126.09;5054447;28;20061;-63
2021/11/27 01:00:37;;;;;;;2.75;1.00;;;;;;;5.20;67.68;97129.66;5054363;28;20056;-63
2021/11/27 01:03:07;;;;;;;1.70;0.93;;;;;;;5.20;67.71;97130.44;5054281;28;20061;-63
2021/11/27 01:05:36;;;;;;;1.30;0.93;;;;;;;5.02;68.52;97129.28;5049124;28;20053;-63
2021/11/27 01:08:05;;;;;;;1.30;0.80;;;;;;;5.22;67.77;97138.38;5035061;28;20053;-63
2021/11/27 01:10:37;;;;;;;1.40;1.10;;;;;;;5.34;67.50;97143.75;5052710;28;20077;-63
2021/11/27 01:13:05;;;;;;;1.50;1.02;;;;;;;5.10;69.08;97142.03;5053398;28;20053;-62
2021/11/27 01:15:34;;;;;;;2.03;1.00;;;;;;;5.29;68.42;97139.34;5037724;28;20060;-63
2021/11/27 01:18:02;;;;;;;1.70;1.00;;;;;;;5.28;68.36;97142.44;5049778;28;20055;-63
2021/11/27 01:20:33;;;;;;;1.40;0.77;;;;;;;5.18;69.01;97152.06;5035536;28;20069;-63
2021/11/27 01:23:01;;;;;;;1.50;1.10;;;;;;;5.11;69.87;97146.41;5041902;28;20057;-62
2021/11/27 01:25:29;;;;;;;1.90;1.13;;;;;;;5.13;70.00;97152.38;5054550;28;20072;-63
2021/11/27 01:27:58;;;;;;;1.00;0.80;;;;;;;5.04;70.17;97160.03;5054678;28;20060;-62
2021/11/27 01:30:26;;;;;;;1.40;1.10;;;;;;;4.90;70.81;97155.00;5054896;28;20061;-62
2021/11/27 01:32:54;;;;;;;1.92;1.08;;;;;;;5.17;70.68;97152.47;5053745;28;20053;-62
2021/11/27 01:35:21;;;;;;;1.98;1.17;;;;;;;5.07;70.85;97148.28;5054656;28;20053;-62
2021/11/27 01:37:48;;;;;;;2.50;0.90;;;;;;;4.83;70.61;97150.13;5044840;28;20057;-62
2021/11/27 01:40:19;;;;;;;1.40;1.00;;;;;;;5.07;70.50;97156.56;5048906;28;20060;-63
2021/11/27 01:42:49;;;;;;;1.58;0.93;;;;;;;5.04;70.35;97144.31;5054685;28;20061;-64
2021/11/27 01:45:19;;;;;;;1.50;1.10;;;;;;;5.00;70.98;97150.91;5054215;28;20053;-62
2021/11/27 01:47:47;;;;;;;;;;;;;;;5.02;70.95;97146.63;5054237;28;20061;-62
2021/11/27 01:50:14;;;;;;;1.40;1.00;;;;;;;4.87;71.31;97151.00;5041747;28;19921;-62
2021/11/27 01:52:42;;;;;;;1.50;1.05;;;;;;;5.05;70.76;97145.88;5053953;28;20057;-62
2021/11/27 01:55:10;;;;;;;1.30;0.90;;;;;;;4.71;71.76;97147.47;5053140;28;20057;-62
2021/11/27 01:57:37;;;;;;;1.83;1.00;;;;;;;4.89;71.44;97150.63;5053373;28;20072;-62
2021/11/27 02:00:11;;;;;;;1.27;0.88;;;;;;;4.64;71.92;97150.84;5053533;28;20056;-62
2021/11/27 02:02:40;;;;;;;1.27;0.90;;;;;;;4.94;70.95;97141.31;5053475;28;20059;-62
2021/11/27 02:05:08;;;;;;;1.83;1.02;;;;;;;5.04;70.62;97143.47;5053842;28;20060;-62
2021/11/27 02:07:37;;;;;;;1.30;0.90;;;;;;;5.13;70.46;97135.81;5054172;28;20084;-62
2021/11/27 02:10:06;;;;;;;1.40;0.90;;;;;;;5.18;69.92;97151.28;5040324;28;20065;-62
2021/11/27 02:12:34;;;;;;;1.50;1.00;;;;;;;4.73;71.15;97150.66;5050324;28;20060;-62
2021/11/27 02:15:01;;;;;;;1.35;0.90;;;;;;;4.97;70.81;97143.31;5053060;28;20056;-62
2021/11/27 02:17:29;;;;;;;1.15;0.77;;;;;;;4.86;71.06;97143.88;5048639;28;20406;-62
2021/11/27 02:19:57;;;;;;;1.08;0.80;;;;;;;4.98;70.78;97136.66;5046481;28;20430;-61
2021/11/27 02:22:26;;;;;;;1.48;0.98;;;;;;;5.04;70.98;97138.78;5049939;28;20053;-62
2021/11/27 02:24:54;;;;;;;1.20;0.80;;;;;;;4.81;71.11;97146.13;5053493;28;20052;-62
2021/11/27 02:27:21;;;;;;;1.40;0.80;;;;;;;4.99;70.17;97135.50;5053598;28;20610;-63
2021/11/27 02:29:51;;;;;;;1.73;1.00;;;;;;;4.97;70.19;97137.81;5052803;28;20060;-62
2021/11/27 02:32:18;;;;;;;;;;;;;;;4.80;71.05;97126.00;5053661;28;20057;-62
2021/11/27 02:34:46;;;;;;;1.17;0.80;;;;;;;4.93;70.17;97131.41;5042896;28;19928;-62
2021/11/27 02:37:14;;;;;;;1.40;0.95;;;;;;;5.01;70.44;97124.91;5044419;28;20426;-62
2021/11/27 02:39:43;;;;;;;1.33;0.80;;;;;;;5.05;69.74;97123.81;5041102;28;20494;-62
2021/11/27 02:42:11;;;;;;;1.33;0.85;;;;;;;5.08;70.00;97123.13;5038653;28;20053;-62
2021/11/27 02:44:40;;;;;;;1.50;0.90;;;;;;;5.13;69.81;97121.22;5049518;28;20056;-62
2021/11/27 02:47:08;;;;;;;1.20;0.88;;;;;;;5.15;69.41;97116.94;5036689;28;20509;-62
2021/11/27 02:49:36;;;;;;;1.20;0.80;;;;;;;4.86;70.22;97121.03;5053147;28;20053;-62
2021/11/27 02:52:05;;;;;;;1.13;0.82;;;;;;;4.83;70.55;97118.97;5051780;28;20056;-62
2021/11/27 02:54:33;;;;;;;1.02;0.60;;;;;;;4.90;70.07;97121.13;5034572;28;20046;-62
2021/11/27 02:57:01;;;;;;;1.25;0.90;;;;;;;4.77;69.80;97121.22;5034117;28;20060;-62
2021/11/27 02:59:30;;;;;;;1.20;1.08;;;;;;;4.85;70.12;97120.25;5047586;28;20417;-62
2021/11/27 03:01:59;;;;;;;1.27;0.82;;;;;;;4.90;69.88;97118.38;5044265;28;20056;-63
2021/11/27 03:04:28;;;;;;;1.45;0.95;;;;;;;4.87;70.25;97122.59;5048662;28;20060;-62
2021/11/27 03:06:58;;;;;;;1.30;0.80;;;;;;;5.04;69.38;97122.22;5052247;28;20517;-62
2021/11/27 03:09:26;;;;;;;1.15;0.80;;;;;;;4.91;70.19;97129.00;5045685;28;20057;-62
2021/11/27 03:11:56;;;;;;;1.70;1.20;;;;;;;5.11;69.54;97127.09;5033029;28;20049;-62
2021/11/27 03:14:27;;;;;;;1.25;0.80;;;;;;;5.17;69.56;97122.09;5051544;28;20426;-62
2021/11/27 03:16:56;;;;;;;1.00;0.70;;;;;;;5.24;68.72;97134.09;5048549;28;20060;-62
2021/11/27 03:19:24;;;;;;;1.60;0.90;;;;;;;5.17;69.08;97135.91;5044196;28;20324;-62
2021/11/27 03:21:51;;;;;;;1.75;1.00;;;;;;;5.17;69.17;97135.91;5052940;28;20065;-62
2021/11/27 03:24:19;;;;;;;1.17;0.73;;;;;;;5.23;69.06;97140.78;5059099;28;20506;-62
2021/11/27 03:26:47;;;;;;;1.65;0.95;;;;;;;5.27;69.45;97146.34;5052939;28;20053;-62
2021/11/27 03:29:14;;;;;;;1.63;1.00;;;;;;;5.30;69.20;97140.13;5051565;28;20087;-62
2021/11/27 03:31:43;;;;;;;2.25;1.10;;;;;;;5.38;69.18;97139.13;5052022;28;20494;-62
2021/11/27 03:34:11;;;;;;;1.60;1.00;;;;;;;5.31;69.53;97140.91;5067600;28;20059;-62
2021/11/27 03:36:39;;;;;;;1.55;0.90;;;;;;;5.26;68.99;97144.75;5053735;28;20060;-62
2021/11/27 03:39:07;;;;;;;1.30;0.90;;;;;;;5.29;68.97;97144.84;5051953;28;20490;-62
2021/11/27 03:41:35;;;;;;;1.30;0.80;;;;;;;5.40;68.64;97145.06;5052261;28;20064;-62
2021/11/27 03:44:02;;;;;;;1.30;0.70;;;;;;;5.49;68.47;97151.16;5052016;28;20061;-62
2021/11/27 03:46:30;;;;;;;1.30;0.80;;;;;;;5.27;68.90;97147.16;5052337;28;20064;-62
2021/11/27 03:48:59;;;;;;;1.35;0.93;;;;;;;5.44;68.40;97154.22;5049299;28;20061;-62
2021/11/27 03:51:26;;;;;;;1.60;1.10;;;;;;;5.32;68.51;97150.81;5041902;28;20061;-62
2021/11/27 03:53:54;;;;;;;1.30;0.80;;;;;;;5.39;68.50;97173.03;5041568;28;20053;-62
2021/11/27 03:56:26;;;;;;;1.30;0.77;;;;;;;5.19;68.75;97156.44;5037761;28;20057;-62
2021/11/27 03:58:55;;;;;;;2.05;1.05;;;;;;;5.07;69.41;97168.38;5042475;28;20061;-62
2021/11/27 04:01:25;;;;;;;1.40;1.08;;;;;;;5.18;69.13;97163.13;5051515;28;20053;-62
2021/11/27 04:03:55;;;;;;;1.40;1.08;;;;;;;4.99;69.88;97168.59;5067480;28;20048;-62
2021/11/27 04:06:24;;;;;;;1.42;0.90;;;;;;;5.10;69.68;97158.59;5052164;28;20049;-62
2021/11/27 04:08:54;;;;;;;1.92;1.17;;;;;;;5.27;69.26;97168.41;5043957;28;20060;-62
2021/11/27 04:11:24;;;;;;;1.30;1.00;;;;;;;5.40;69.08;97163.59;5051506;28;20049;-62
2021/11/27 04:13:51;;;;;;;1.83;1.17;;;;;;;5.39;68.65;97167.50;5051413;28;20071;-62
2021/11/27 04:16:19;;;;;;;1.50;1.10;;;;;;;5.24;69.02;97158.91;5051141;28;20474;-62
2021/11/27 04:18:47;;;;;;;1.23;0.90;;;;;;;5.28;68.96;97167.28;5065236;28;20052;-62
2021/11/27 04:21:15;;;;;;;1.88;1.20;;;;;;;5.15;69.48;97169.38;5056670;28;20068;-62
2021/11/27 04:23:43;;;;;;;1.50;1.20;;;;;;;5.13;70.03;97168.91;5067816;28;20049;-62
2021/11/27 04:26:11;;;;;;;1.30;0.85;;;;;;;5.20;69.51;97163.56;5066325;28;20061;-62
2021/11/27 04:28:39;;;;;;;1.70;1.27;;;;;;;5.25;69.33;97170.78;5059654;28;20048;-62
2021/11/27 04:31:06;;;;;;;1.50;1.10;;;;;;;5.26;69.10;97172.34;5074028;28;20406;-62
2021/11/27 04:33:34;;;;;;;1.52;1.20;;;;;;;5.07;69.29;97171.16;5070819;28;20383;-62
2021/11/27 04:36:02;;;;;;;2.00;1.35;;;;;;;5.03;70.11;97175.78;5066282;28;20056;-62
2021/11/27 04:38:29;;;;;;;1.88;1.40;;;;;;;4.86;70.65;97176.97;5055642;28;20057;-62
2021/11/27 04:40:58;;;;;;;2.80;1.50;;;;;;;5.04;69.76;97187.59;5065055;28;20413;-62
2021/11/27 04:43:26;;;;;;;2.30;1.63;;;;;;;4.99;70.26;97191.44;5051502;28;20060;-62
2021/11/27 04:45:53;;;;;;;2.03;1.42;;;;;;;4.98;70.26;97189.06;5054703;28;20059;-62
2021/11/27 04:48:21;;;;;;;2.08;1.55;;;;;;;5.08;70.02;97194.84;5066781;28;20064;-62
2021/11/27 04:50:49;;;;;;;2.00;1.65;;;;;;;5.17;69.76;97199.34;5056947;28;20422;-62
2021/11/27 04:53:17;;;;;;;2.58;1.50;;;;;;;5.09;70.33;97206.66;5055428;28;20053;-62
2021/11/27 04:55:45;;;;;;;2.47;2.08;;;;;;;5.03;70.61;97208.09;5065174;28;20056;-62
2021/11/27 04:58:14;;;;;;;2.70;2.20;;;;;;;4.99;70.54;97212.72;5065495;28;20057;-62
2021/11/27 05:00:44;;;;;;;2.15;1.90;;;;;;;5.00;70.53;97215.13;5055369;28;20056;-62
2021/11/27 05:03:12;;;;;;;;;;;;;;;5.09;70.73;97212.97;5065312;28;20453;-62
2021/11/27 05:05:39;;;;;;;2.50;1.98;;;;;;;4.98;70.95;97213.91;5061892;28;19928;-62
2021/11/27 05:08:07;;;;;;;2.33;2.03;;;;;;;5.07;70.86;97215.28;5054879;28;20068;-62
2021/11/27 05:10:35;;;;;;;2.65;2.45;;;;;;;5.14;70.51;97203.59;5055122;28;20069;-62
2021/11/27 05:13:02;;;;;;;3.08;2.60;;;;;;;5.28;69.98;97216.94;5062875;28;20049;-62
2021/11/27 05:15:31;;;;;;;2.72;2.30;;;;;;;5.13;70.32;97229.63;5073935;28;20501;-61
2021/11/27 05:17:58;;;;;;;2.67;2.30;;;;;;;5.20;70.10;97227.00;5062376;28;20061;-62
2021/11/27 05:20:26;;;;;;;3.30;2.70;;;;;;;5.12;70.73;97236.28;5055523;28;20048;-62
2021/11/27 05:22:54;;;;;;;3.35;3.05;;;;;;;5.05;71.32;97249.91;5059527;28;20054;-62
2021/11/27 05:25:21;;;;;;;3.80;3.30;;;;;;;5.29;70.33;97257.97;5034775;28;20426;-62
2021/11/27 05:27:49;;;;;;;4.18;3.17;;;;;;;5.33;70.39;97254.50;5048549;28;20041;-62
2021/11/27 05:30:16;;;;;;;3.97;3.58;;;;;;;5.26;70.08;97269.72;5055023;28;20059;-62
2021/11/27 05:33:05;;;;;;;4.80;4.30;;;;;;;5.29;70.36;97276.47;5054757;28;20064;-62
2021/11/27 05:35:33;;;;;;;5.70;4.35;;;;;;;5.45;68.76;97279.22;5054478;28;20068;-62
2021/11/27 05:38:02;;;;;;;4.45;4.03;;;;;;;5.23;68.74;97284.25;5053909;28;20049;-62
2021/11/27 05:40:30;;;;;;;4.05;3.33;;;;;;;5.31;68.21;97285.19;5054377;28;20080;-62
2021/11/27 05:42:57;;;;;;;3.53;2.83;;;;;;;5.29;67.05;97298.56;5050170;28;20053;-62
2021/11/27 05:45:27;;;;;;;3.10;2.70;;;;;;;5.01;67.57;97298.66;5053304;28;20058;-62
2021/11/27 05:47:58;;;;;;;3.58;3.00;;;;;;;5.17;67.51;97299.47;5046989;28;20053;-62
2021/11/27 05:50:26;;;;;;;3.97;3.00;;;;;;;5.43;67.24;97311.91;5049630;28;20528;-62
2021/11/27 05:52:54;;;;;;;4.18;2.83;;;;;;;5.18;67.58;97300.25;5046992;28;20064;-62
2021/11/27 05:55:25;;;;;;;3.38;2.58;;;;;;;5.11;67.07;97314.69;5047919;28;20083;-62
2021/11/27 05:57:52;;;;;;;3.35;2.90;;;;;;;5.19;67.10;97312.91;5053777;28;20117;-62
2021/11/27 06:00:20;;;;;;;3.28;2.72;;;;;;;5.27;67.38;97318.25;5054286;28;20060;-62
2021/11/27 06:02:48;;;;;;;2.85;2.25;;;;;;;4.97;67.36;97319.84;5044391;28;20418;-62
2021/11/27 06:05:16;;;;;;;3.60;2.47;;;;;;;4.85;68.20;97335.31;5050183;28;20061;-62
2021/11/27 06:07:44;;;;;;;3.10;2.50;;;;;;;5.18;67.13;97345.22;5034292;28;20054;-62
2021/11/27 06:10:12;;;;;;;3.55;2.67;;;;;;;5.09;67.45;97345.38;5037175;28;20066;-61
2021/11/27 06:12:39;;;;;;;3.92;2.58;;;;;;;5.03;67.76;97351.53;5043082;28;20065;-62
2021/11/27 06:15:07;;;;;;;3.13;2.40;;;;;;;5.20;66.84;97351.16;5045383;28;20517;-62
2021/11/27 06:17:34;;;;;;;3.58;2.58;;;;;;;5.16;67.56;97347.50;5043919;28;20062;-62
2021/11/27 06:20:02;;;;;;;2.70;2.20;;;;;;;5.22;66.61;97348.06;5049959;28;20056;-62
2021/11/27 06:22:31;;;;;;;3.58;2.72;;;;;;;5.24;66.72;97352.06;5033861;28;20068;-62
2021/11/27 06:24:59;;;;;;;3.17;2.50;;;;;;;5.08;67.44;97359.53;5048629;28;20065;-62
2021/11/27 06:27:28;;;;;;;3.03;2.55;;;;;;;5.20;67.28;97359.44;5054119;28;20056;-62
2021/11/27 06:29:55;;;;;;;3.20;2.38;;;;;;;5.23;67.22;97364.28;5037937;28;20522;-62
2021/11/27 06:32:23;;;;;;;3.25;2.75;;;;;;;5.25;66.97;97372.19;5049204;28;20060;-62
2021/11/27 06:34:51;;;;;;;3.78;2.80;;;;;;;5.31;67.21;97370.75;5033694;28;20121;-62
2021/11/27 06:37:19;;;;;;;4.03;3.05;;;;;;;5.23;67.78;97380.81;5044104;28;20417;-61
2021/11/27 06:39:49;;;;;;;4.00;2.95;;;;;;;5.08;68.04;97384.34;5058335;28;20049;-62
2021/11/27 06:42:17;;;;;;;4.03;3.15;;;;;;;5.24;67.41;97382.41;5053535;28;20453;-62
2021/11/27 06:44:47;;;;;;;5.00;3.75;;;;;;;5.37;67.33;97382.34;5052509;28;20068;-62
2021/11/27 06:47:15;;;;;;;5.15;3.22;;;;;;;5.39;67.53;97391.84;5053305;28;20053;-62
2021/11/27 06:49:43;;;;;;;5.32;3.60;;;;;;;5.47;67.20;97387.31;5052421;28;20064;-62
2021/11/27 06:52:11;;;;;;;3.85;3.13;;;;;;;5.48;67.09;97395.25;5033661;28;20053;-62
2021/11/27 06:54:38;;;;;;;4.05;3.35;;;;;;;5.47;66.91;97401.91;5048663;28;20085;-62
2021/11/27 06:57:07;;;;;;;4.60;3.40;;;;;;;5.30;67.50;97399.50;5051713;28;20060;-62
2021/11/27 06:59:36;;;;;;;4.05;3.00;;;;;;;5.18;68.24;97419.69;5052367;28;20068;-61
2021/11/27 07:02:04;;;;;;;4.43;3.33;;;;;;;5.16;68.38;97410.97;5034572;28;20426;-62
2021/11/27 07:04:32;;;;;;;4.18;3.58;;;;;;;5.19;68.25;97407.53;5051087;28;20049;-62
2021/11/27 07:06:59;;;;;;;4.78;4.25;;;;;;;5.06;68.67;97422.53;5053399;28;20053;-61
2021/11/27 07:09:27;;;;;;;5.47;4.13;;;;;;;5.25;68.63;97419.91;5045638;28;20053;-62
2021/11/27 07:11:54;;;;;;;4.40;3.72;;;;;;;5.41;68.16;97419.09;5032507;28;20065;-62
2021/11/27 07:14:23;;;;;;;4.97;3.70;;;;;;;5.35;67.67;97417.75;5033213;28;20057;-62
2021/11/27 07:16:50;;;;;;;4.05;3.30;;;;;;;5.38;67.74;97428.09;5050240;28;20049;-62
2021/11/27 07:19:17;;;;;;;4.47;3.70;;;;;;;5.47;67.84;97425.97;5047992;28;20517;-62
2021/11/27 07:21:45;;;;;;;4.35;3.63;;;;;;;5.39;67.70;97429.69;5053042;28;20057;-62
2021/11/27 07:24:12;;;;;;;5.15;3.78;;;;;;;5.28;67.57;97432.97;5057345;28;20063;-62
2021/11/27 07:26:40;;;;;;;4.70;3.88;;;;;;;5.27;68.11;97447.94;5057040;28;20052;-62
2021/11/27 07:29:07;;;;;;;5.47;4.30;;;;;;;5.25;67.82;97447.50;5066857;28;20061;-62
2021/11/27 07:31:36;;;;;;;4.65;4.00;;;;;;;5.31;68.04;97449.97;5072003;28;20480;-62
2021/11/27 07:34:03;;;;;;;5.20;4.38;;;;;;;5.46;66.98;97440.94;5060239;28;20056;-62
2021/11/27 07:36:31;;;;;;;4.72;3.83;;;;;;;5.49;66.97;97454.81;5071667;28;20057;-62
2021/11/27 07:38:59;;;;;;;4.38;3.80;;;;;;;5.43;66.83;97450.72;5068611;28;20055;-62
2021/11/27 07:41:26;;;;;;;5.65;3.97;;;;;;;5.59;66.69;97456.25;5067002;28;20056;-61
2021/11/27 07:43:54;;;;;;;5.10;3.67;;;;;;;5.46;66.27;97463.03;5064200;28;20074;-62
2021/11/27 07:46:21;;;;;;;4.78;3.75;;;;;;;5.70;65.42;97462.84;5066356;28;20060;-62
2021/11/27 07:48:50;;;;;;;5.70;3.50;;;;;;;5.59;66.07;97461.78;5062205;28;20057;-62
2021/11/27 07:51:18;;;;;;;5.20;3.63;;;;;;;5.58;65.81;97465.69;5067672;28;20048;-62
2021/11/27 07:53:45;;;;;;;4.72;3.80;;;;;;;5.60;65.97;97470.84;5068578;28;20059;-62
2021/11/27 07:56:13;;;;;;;5.78;3.88;;;;;;;5.57;66.50;97483.41;5055548;28;20081;-62
2021/11/27 07:58:41;;;;;;;4.53;3.60;;;;;;;5.90;65.46;97474.00;5057249;28;20057;-62
2021/11/27 08:01:09;;;;;;;6.47;3.97;;;;;;;5.95;65.25;97478.47;5058871;28;20045;-62
2021/11/27 08:03:39;;;;;;;5.20;3.90;;;;;;;5.67;65.83;97479.34;5063280;28;20045;-62
2021/11/27 08:06:08;;;;;;;5.68;3.70;;;;;;;5.83;64.96;97484.84;5052425;28;20068;-63
2021/11/27 08:08:35;;;;;;;5.15;3.72;;;;;;;6.04;64.04;97490.91;5055429;28;20124;-62
2021/11/27 08:11:02;;;;;;;5.38;3.75;;;;;;;6.23;64.44;97484.66;5061901;28;20064;-62
2021/11/27 08:13:30;;;;;;;6.28;4.97;;;;;;;6.33;64.03;97488.84;5052752;28;20510;-61
2021/11/27 08:15:57;;;;;;;7.35;5.30;;;;;;;6.22;64.11;97493.31;5065122;28;20060;-62
2021/11/27 08:18:26;;;;;;;6.55;4.18;;;;;;;6.19;63.34;97494.81;5051497;28;20053;-62
2021/11/27 08:20:54;;;;;;;7.13;5.18;;;;;;;6.33;63.36;97493.56;5070488;28;20083;-61
2021/11/27 08:23:23;;;;;;;6.95;5.00;;;;;;;6.45;63.24;97504.53;5070626;28;20423;-62
2021/11/27 08:25:50;;;;;;;7.07;4.70;;;;;;;6.31;62.48;97507.75;5067265;28;20065;-61
2021/11/27 08:28:18;;;;;;;7.90;5.32;;;;;;;6.52;62.31;97506.63;5069208;28;20085;-62
2021/11/27 08:30:45;;;;;;;5.63;4.50;;;;;;;6.33;62.45;97510.94;5070242;28;20579;-61
2021/11/27 08:33:13;;;;;;;7.20;5.15;;;;;;;6.45;62.88;97513.63;5055633;28;20049;-62
2021/11/27 08:35:40;;;;;;;5.90;5.03;;;;;;;6.59;61.81;97517.84;5058651;28;20528;-60
2021/11/27 08:38:08;;;;;;;7.65;5.32;;;;;;;6.71;61.84;97521.28;5057879;28;20501;-60
2021/11/27 08:40:36;;;;;;;4.88;4.38;;;;;;;6.68;61.84;97529.53;5064757;28;20057;-61
2021/11/27 08:43:04;;;;;;;6.75;5.22;;;;;;;6.81;60.84;97531.00;5065270;28;20064;-62
2021/11/27 08:45:31;;;;;;;6.35;5.10;;;;;;;7.37;60.30;97531.75;5070883;28;20052;-61
2021/11/27 08:47:58;;;;;;;5.53;4.80;;;;;;;8.83;56.85;97530.66;5051617;28;20059;-61
2021/11/27 08:50:26;;;;;;;4.80;3.90;;;;;;;10.37;52.24;97531.56;5051814;28;20410;-62
2021/11/27 08:52:53;;;;;;;5.60;4.22;;;;;;;12.04;48.80;97530.00;5051596;28;20057;-61
2021/11/27 08:55:21;;;;;;;6.82;4.38;;;;;;;12.87;45.27;97530.78;5062750;28;20052;-62
2021/11/27 08:57:51;;;;;;;4.82;4.28;;;;;;;13.64;44.75;97538.53;5066287;28;20056;-62
2021/11/27 09:00:19;;;;;;;6.45;4.55;;;;;;;12.42;45.52;97533.22;5065117;28;20048;-61
2021/11/27 09:02:47;;;;;;;6.97;5.35;;;;;;;11.94;46.53;97548.31;5071252;28;20060;-62
2021/11/27 09:05:14;;;;;;;8.57;5.43;;;;;;;11.35;47.17;97545.69;5069235;28;20060;-62
2021/11/27 09:07:42;;;;;;;7.40;5.47;;;;;;;10.19;50.04;97559.22;5057192;28;20413;-62
2021/11/27 09:10:10;;;;;;;7.75;6.03;;;;;;;9.19;52.19;97563.66;5066145;28;20053;-62
2021/11/27 09:12:38;;;;;;;10.25;7.90;;;;;;;8.53;54.54;97567.50;5060048;28;20516;-62
2021/11/27 09:15:08;;;;;;;7.47;6.25;;;;;;;8.28;56.03;97569.81;5058315;28;20056;-62
2021/11/27 09:17:35;;;;;;;9.65;7.05;;;;;;;7.94;56.79;97579.94;5054610;28;20064;-61
2021/11/27 09:20:04;;;;;;;7.32;5.72;;;;;;;7.63;57.34;97580.94;5064264;28;20052;-62
2021/11/27 09:22:31;;;;;;;10.13;7.50;;;;;;;7.13;59.24;97583.47;5060744;28;20053;-61
2021/11/27 09:24:59;;;;;;;7.82;6.80;;;;;;;6.99;59.40;97583.97;5054409;28;20061;-61
2021/11/27 09:27:26;;;;;;;9.88;7.20;;;;;;;7.07;59.98;97593.22;5054705;28;20065;-61
2021/11/27 09:29:54;;;;;;;11.15;7.43;;;;;;;6.93;60.62;97590.13;5053561;28;20380;-61
2021/11/27 09:32:23;;;;;;;8.50;6.50;;;;;;;6.97;60.35;97591.00;5054775;28;20417;-60
2021/11/27 09:34:53;;;;;;;8.40;7.15;;;;;;;7.77;58.18;97597.84;5052293;28;20071;-61
2021/11/27 09:37:22;;;;;;;9.45;7.13;;;;;;;7.90;57.97;97604.00;5052847;28;20063;-62
2021/11/27 09:39:49;;;;;;;10.23;7.00;;;;;;;7.71;58.90;97616.72;5040095;28;20054;-61
2021/11/27 09:42:18;;;;;;;10.60;8.05;;;;;;;7.57;58.87;97613.66;5039157;28;20056;-61
2021/11/27 09:44:48;;;;;;;11.45;8.30;;;;;;;7.55;59.23;97612.41;5052474;28;20056;-61
2021/11/27 09:47:17;;;;;;;10.23;8.68;;;;;;;7.65;59.43;97615.41;5054001;28;20418;-61
2021/11/27 09:49:47;;;;;;;11.15;8.45;;;;;;;7.99;59.10;97620.41;5053266;28;20124;-61
2021/11/27 09:52:15;;;;;;;11.15;7.95;;;;;;;7.83;57.91;97618.53;5036343;28;20088;-61
2021/11/27 09:54:42;;;;;;;15.77;8.65;;;;;;;8.08;57.71;97613.47;5053068;28;20057;-61
2021/11/27 09:57:10;;;;;;;10.30;8.18;;;;;;;8.18;57.22;97614.00;5053672;28;20391;-64
2021/11/27 09:59:39;;;;;;;10.45;7.47;;;;;;;7.99;56.62;97615.66;5052630;28;21252;-63
2021/11/27 10:02:09;;;;;;;9.68;8.15;;;;;;;7.97;56.49;97618.00;5049692;28;20552;-61
2021/11/27 10:04:39;;;;;;;8.93;6.88;;;;;;;7.67;57.87;97626.91;5048943;28;20061;-63
2021/11/27 10:07:11;;;;;;;10.82;8.48;;;;;;;7.51;57.33;97626.97;5050477;28;20754;-64
2021/11/27 10:09:39;;;;;;;12.35;8.65;;;;;;;7.38;58.74;97633.03;5048560;28;20487;-64
2021/11/27 10:12:08;;;;;;;10.05;7.97;;;;;;;7.46;58.48;97634.78;5044708;28;20073;-64
2021/11/27 10:14:39;;;;;;;10.55;7.40;;;;;;;7.32;58.47;97641.63;5035365;28;20057;-64
2021/11/27 10:17:12;;;;;;;10.25;7.32;;;;;;;7.46;58.06;97643.09;5053483;28;20061;-64
2021/11/27 10:19:48;;;;;;;16.20;8.57;;;;;;;7.32;58.17;97655.47;5052654;28;20433;-64
2021/11/27 10:22:22;;;;;;;11.82;7.57;;;;;;;7.23;58.51;97646.56;5051079;28;20579;-65
2021/11/27 10:24:52;;;;;;;11.27;8.25;;;;;;;7.48;58.45;97644.34;5069559;28;20059;-64
2021/11/27 10:27:21;;;;;;;;;;;;;;;7.50;58.00;97657.84;5074360;28;20063;-64
2021/11/27 10:30:00;;;;;;;10.45;6.95;;;;;;;8.25;54.49;97651.00;5073270;28;20297;-64
2021/11/27 10:32:37;;;;;;;10.98;6.43;;;;;;;8.02;55.41;97664.81;5073944;28;20060;-64
2021/11/27 10:35:10;;;;;;;10.10;5.80;;;;;;;8.25;55.68;97651.00;5073099;28;20067;-64
2021/11/27 10:37:44;;;;;;;15.07;7.50;;;;;;;7.86;55.96;97662.13;5072982;28;20059;-64
2021/11/27 10:40:17;;;;;;;10.13;6.35;;;;;;;8.12;55.21;97657.88;5073106;28;20093;-64
2021/11/27 10:42:47;;;;;;;9.85;6.35;;;;;;;7.83;55.72;97664.81;5073633;28;20056;-64
2021/11/27 10:45:20;;;;;;;10.45;6.25;;;;;;;7.96;55.43;97660.75;5073304;28;20060;-64
2021/11/27 10:47:49;;;;;;;11.50;7.38;;;;;;;7.87;55.98;97657.38;5060932;28;20489;-64
2021/11/27 10:50:20;;;;;;;9.88;6.38;;;;;;;8.22;55.24;97662.00;5073046;28;20064;-64
2021/11/27 10:52:50;;;;;;;10.43;7.03;;;;;;;8.83;54.20;97666.66;5074041;28;20408;-64
2021/11/27 10:55:22;;;;;;;9.27;6.90;;;;;;;10.37;50.38;97670.69;5072735;28;20409;-64
2021/11/27 10:57:55;;;;;;;9.57;6.45;;;;;;;9.85;50.27;97662.16;5060555;28;20048;-64
2021/11/27 11:00:36;;;;;;;9.90;6.43;;;;;;;9.38;51.73;97671.84;5072921;28;20049;-64
2021/11/27 11:03:09;;;;;;;9.90;6.28;;;;;;;8.90;52.45;97682.63;5053646;28;20057;-64
2021/11/27 11:05:38;;;;;;;11.20;6.78;;;;;;;8.92;52.22;97686.66;5052778;28;20064;-64
2021/11/27 11:08:08;;;;;;;10.50;5.95;;;;;;;8.69;52.66;97678.34;5058558;28;20053;-64
2021/11/27 11:10:37;;;;;;;10.20;5.20;;;;;;;8.53;52.48;97697.09;5059348;28;20508;-63
2021/11/27 11:13:07;;;;;;;11.98;5.82;;;;;;;8.13;54.20;97696.31;5065983;28;20075;-60
2021/11/27 11:15:37;;;;;;;11.00;5.38;;;;;;;8.97;51.63;97698.63;5066180;28;20056;-60
2021/11/27 11:18:16;;;;;;;9.68;5.90;;;;;;;10.00;48.86;97695.69;5074044;28;20059;-60
2021/11/27 11:20:47;;;;;;;14.93;6.90;;;;;;;10.72;47.37;97686.13;5064009;28;20071;-58
2021/11/27 11:23:20;;;;;;;10.15;4.95;;;;;;;11.55;45.43;97699.50;5060661;28;20063;-60
2021/11/27 11:26:10;;;;;;;8.23;4.18;;;;;;;10.70;46.23;97708.00;5063902;28;20059;-62
2021/11/27 11:28:40;;;;;;;7.07;4.78;;;;;;;9.59;49.25;97693.56;5062947;28;20071;-60
2021/11/27 11:31:10;;;;;;;9.90;5.63;;;;;;;11.01;47.04;97698.31;5072745;28;20056;-60
2021/11/27 11:33:39;;;;;;;;;;;;;;;11.26;45.45;97690.16;5072990;28;20430;-61
2021/11/27 11:36:09;;;;;;;12.02;5.82;;;;;;;11.09;46.40;97688.84;5072539;28;19920;-61
2021/11/27 11:38:39;;;;;;;;;;;;;;;10.76;46.75;97703.69;5073107;28;20052;-60
2021/11/27 11:41:06;;;;;;;8.52;6.00;;;;;;;11.58;45.78;97689.56;5072103;28;19920;-61
2021/11/27 11:43:34;;;;;;;10.07;5.75;;;;;;;12.08;44.04;97691.81;5072488;28;20067;-60
2021/11/27 11:46:01;;;;;;;10.43;6.47;;;;;;;11.50;46.19;97702.66;5071895;28;20060;-60
2021/11/27 11:48:30;;;;;;;10.30;6.00;;;;;;;12.87;42.14;97701.19;5072723;28;20440;-61